sensor_id;sensor_type;location;lat;lon;timestamp;temperature;humidity
11035;DHT22;5571;48.110;-1.706;2023-04-06T00:00:07;10.30;99.90
11035;DHT22;5571;48.110;-1.706;2023-04-06T00:02:34;10.30;99.90
11035;DHT22;5571;48.110;-1.706;2023-04-06T00:05:00;10.20;99.90
11035;DHT22;5571;48.110;-1.706;2023-04-06T00:07:26;10.20;99.90
11035;DHT22;5571;48.110;-1.706;2023-04-06T00:09:53;10.20;99.90
11035;DHT22;5571;48.110;-1.706;2023-04-06T00:12:18;10.20;99.90
11035;DHT22;5571;48.110;-1.706;2023-04-06T00:14:44;10.10;99.90
11035;DHT22;5571;48.110;-1.706;2023-04-06T00:17:10;10.10;99.90
11035;DHT22;5571;48.110;-1.706;2023-04-06T00:19:35;10.00;99.90
11035;DHT22;5571;48.110;-1.706;2023-04-06T00:22:01;10.00;99.90
11035;DHT22;5571;48.110;-1.706;2023-04-06T00:24:27;10.00;99.90
11035;DHT22;5571;48.110;-1.706;2023-04-06T00:26:53;10.00;99.90
11035;DHT22;5571;48.110;-1.706;2023-04-06T00:29:19;9.90;99.90
11035;DHT22;5571;48.110;-1.706;2023-04-06T00:31:45;10.00;99.90
11035;DHT22;5571;48.110;-1.706;2023-04-06T00:34:10;10.00;99.90
11035;DHT22;5571;48.110;-1.706;2023-04-06T00:36:36;10.00;99.90
11035;DHT22;5571;48.110;-1.706;2023-04-06T00:39:02;10.10;99.90
11035;DHT22;5571;48.110;-1.706;2023-04-06T00:41:27;10.10;99.90
11035;DHT22;5571;48.110;-1.706;2023-04-06T00:43:54;10.20;99.90
11035;DHT22;5571;48.110;-1.706;2023-04-06T00:46:20;10.20;99.90
11035;DHT22;5571;48.110;-1.706;2023-04-06T00:48:46;10.20;99.90
11035;DHT22;5571;48.110;-1.706;2023-04-06T00:51:11;10.20;99.90
11035;DHT22;5571;48.110;-1.706;2023-04-06T00:53:37;10.10;99.90
11035;DHT22;5571;48.110;-1.706;2023-04-06T00:56:03;10.10;99.90
11035;DHT22;5571;48.110;-1.706;2023-04-06T00:58:28;10.10;99.90
11035;DHT22;5571;48.110;-1.706;2023-04-06T01:00:54;10.00;99.90
11035;DHT22;5571;48.110;-1.706;2023-04-06T01:03:20;10.00;99.90
11035;DHT22;5571;48.110;-1.706;2023-04-06T01:05:46;10.00;99.90
11035;DHT22;5571;48.110;-1.706;2023-04-06T01:08:12;9.90;99.90
11035;DHT22;5571;48.110;-1.706;2023-04-06T01:10:37;9.90;99.90
11035;DHT22;5571;48.110;-1.706;2023-04-06T01:13:03;9.90;99.90
11035;DHT22;5571;48.110;-1.706;2023-04-06T01:15:29;9.90;99.90
11035;DHT22;5571;48.110;-1.706;2023-04-06T01:17:55;9.90;99.90
11035;DHT22;5571;48.110;-1.706;2023-04-06T01:20:21;9.90;99.90
11035;DHT22;5571;48.110;-1.706;2023-04-06T01:22:46;9.80;99.90
11035;DHT22;5571;48.110;-1.706;2023-04-06T01:25:12;9.80;99.90
11035;DHT22;5571;48.110;-1.706;2023-04-06T01:27:38;9.80;99.90
11035;DHT22;5571;48.110;-1.706;2023-04-06T01:30:04;9.90;99.90
11035;DHT22;5571;48.110;-1.706;2023-04-06T01:32:30;9.90;99.90
11035;DHT22;5571;48.110;-1.706;2023-04-06T01:34:55;9.90;99.90
11035;DHT22;5571;48.110;-1.706;2023-04-06T01:37:21;9.90;99.90
11035;DHT22;5571;48.110;-1.706;2023-04-06T01:39:46;9.90;99.90
11035;DHT22;5571;48.110;-1.706;2023-04-06T01:42:12;10.00;99.90
11035;DHT22;5571;48.110;-1.706;2023-04-06T01:44:38;10.00;99.90
11035;DHT22;5571;48.110;-1.706;2023-04-06T01:47:03;9.90;99.90
11035;DHT22;5571;48.110;-1.706;2023-04-06T01:49:29;9.90;99.90
11035;DHT22;5571;48.110;-1.706;2023-04-06T01:51:55;9.90;99.90
11035;DHT22;5571;48.110;-1.706;2023-04-06T01:54:21;9.80;99.90
11035;DHT22;5571;48.110;-1.706;2023-04-06T01:56:47;9.80;99.90
11035;DHT22;5571;48.110;-1.706;2023-04-06T01:59:12;9.70;99.90
11035;DHT22;5571;48.110;-1.706;2023-04-06T02:01:38;9.70;99.90
11035;DHT22;5571;48.110;-1.706;2023-04-06T02:04:04;9.80;99.90
11035;DHT22;5571;48.110;-1.706;2023-04-06T02:06:29;9.80;99.90
11035;DHT22;5571;48.110;-1.706;2023-04-06T02:08:56;9.90;99.90
11035;DHT22;5571;48.110;-1.706;2023-04-06T02:11:21;9.90;99.90
11035;DHT22;5571;48.110;-1.706;2023-04-06T02:13:47;10.00;99.90
11035;DHT22;5571;48.110;-1.706;2023-04-06T02:16:12;10.00;99.90
11035;DHT22;5571;48.110;-1.706;2023-04-06T02:18:38;9.90;99.90
11035;DHT22;5571;48.110;-1.706;2023-04-06T02:21:04;9.90;99.90
11035;DHT22;5571;48.110;-1.706;2023-04-06T02:23:29;9.80;99.90
11035;DHT22;5571;48.110;-1.706;2023-04-06T02:25:55;9.80;99.90
11035;DHT22;5571;48.110;-1.706;2023-04-06T02:28:21;9.80;99.90
11035;DHT22;5571;48.110;-1.706;2023-04-06T02:30:46;9.80;99.90
11035;DHT22;5571;48.110;-1.706;2023-04-06T02:33:12;9.80;99.90
11035;DHT22;5571;48.110;-1.706;2023-04-06T02:35:37;9.80;99.90
11035;DHT22;5571;48.110;-1.706;2023-04-06T02:38:03;9.80;99.90
11035;DHT22;5571;48.110;-1.706;2023-04-06T02:40:29;9.80;99.90
11035;DHT22;5571;48.110;-1.706;2023-04-06T02:42:54;9.70;99.90
11035;DHT22;5571;48.110;-1.706;2023-04-06T02:45:20;9.70;99.90
11035;DHT22;5571;48.110;-1.706;2023-04-06T02:47:46;9.70;99.90
11035;DHT22;5571;48.110;-1.706;2023-04-06T02:50:11;9.80;99.90
11035;DHT22;5571;48.110;-1.706;2023-04-06T02:52:37;9.70;99.90
11035;DHT22;5571;48.110;-1.706;2023-04-06T02:55:03;9.70;99.90
11035;DHT22;5571;48.110;-1.706;2023-04-06T02:57:28;9.70;99.90
11035;DHT22;5571;48.110;-1.706;2023-04-06T02:59:54;9.70;99.90
11035;DHT22;5571;48.110;-1.706;2023-04-06T03:02:19;9.70;99.90
11035;DHT22;5571;48.110;-1.706;2023-04-06T03:04:45;9.70;99.90
11035;DHT22;5571;48.110;-1.706;2023-04-06T03:07:11;9.70;99.90
11035;DHT22;5571;48.110;-1.706;2023-04-06T03:09:37;9.70;99.90
11035;DHT22;5571;48.110;-1.706;2023-04-06T03:12:03;9.60;99.90
11035;DHT22;5571;48.110;-1.706;2023-04-06T03:14:28;9.70;99.90
11035;DHT22;5571;48.110;-1.706;2023-04-06T03:16:54;9.70;99.90
11035;DHT22;5571;48.110;-1.706;2023-04-06T03:19:20;9.70;99.90
11035;DHT22;5571;48.110;-1.706;2023-04-06T03:21:45;9.70;99.90
11035;DHT22;5571;48.110;-1.706;2023-04-06T03:24:11;9.70;99.90
11035;DHT22;5571;48.110;-1.706;2023-04-06T03:26:39;9.70;99.90
11035;DHT22;5571;48.110;-1.706;2023-04-06T03:29:04;9.70;99.90
11035;DHT22;5571;48.110;-1.706;2023-04-06T03:31:30;9.70;99.90
11035;DHT22;5571;48.110;-1.706;2023-04-06T03:33:56;9.70;99.90
11035;DHT22;5571;48.110;-1.706;2023-04-06T03:36:21;9.70;99.90
11035;DHT22;5571;48.110;-1.706;2023-04-06T03:38:47;9.60;99.90
11035;DHT22;5571;48.110;-1.706;2023-04-06T03:41:13;9.60;99.90
11035;DHT22;5571;48.110;-1.706;2023-04-06T03:43:38;9.70;99.90
11035;DHT22;5571;48.110;-1.706;2023-04-06T03:46:04;9.70;99.90
11035;DHT22;5571;48.110;-1.706;2023-04-06T03:48:30;9.70;99.90
11035;DHT22;5571;48.110;-1.706;2023-04-06T03:50:55;9.70;99.90
11035;DHT22;5571;48.110;-1.706;2023-04-06T03:53:21;9.70;99.90
11035;DHT22;5571;48.110;-1.706;2023-04-06T03:55:47;9.70;99.90
11035;DHT22;5571;48.110;-1.706;2023-04-06T03:58:12;9.70;99.90
11035;DHT22;5571;48.110;-1.706;2023-04-06T04:00:38;9.70;99.90
11035;DHT22;5571;48.110;-1.706;2023-04-06T04:03:04;9.70;99.90
11035;DHT22;5571;48.110;-1.706;2023-04-06T04:05:29;9.80;99.90
11035;DHT22;5571;48.110;-1.706;2023-04-06T04:07:55;9.70;99.90
11035;DHT22;5571;48.110;-1.706;2023-04-06T04:10:21;9.80;99.90
11035;DHT22;5571;48.110;-1.706;2023-04-06T04:12:46;9.80;99.90
11035;DHT22;5571;48.110;-1.706;2023-04-06T04:15:12;9.80;99.90
11035;DHT22;5571;48.110;-1.706;2023-04-06T04:17:37;9.80;99.90
11035;DHT22;5571;48.110;-1.706;2023-04-06T04:20:03;9.80;99.90
11035;DHT22;5571;48.110;-1.706;2023-04-06T04:22:29;9.80;99.90
11035;DHT22;5571;48.110;-1.706;2023-04-06T04:24:55;9.80;99.90
11035;DHT22;5571;48.110;-1.706;2023-04-06T04:27:20;9.80;99.90
11035;DHT22;5571;48.110;-1.706;2023-04-06T04:29:47;9.80;99.90
11035;DHT22;5571;48.110;-1.706;2023-04-06T04:32:12;9.80;99.90
11035;DHT22;5571;48.110;-1.706;2023-04-06T04:34:38;9.70;99.90
11035;DHT22;5571;48.110;-1.706;2023-04-06T04:37:06;9.70;99.90
11035;DHT22;5571;48.110;-1.706;2023-04-06T04:39:32;9.70;99.90
11035;DHT22;5571;48.110;-1.706;2023-04-06T04:41:58;9.70;99.90
11035;DHT22;5571;48.110;-1.706;2023-04-06T04:44:24;9.70;99.90
11035;DHT22;5571;48.110;-1.706;2023-04-06T04:46:49;9.70;99.90
11035;DHT22;5571;48.110;-1.706;2023-04-06T04:49:15;9.80;99.90
11035;DHT22;5571;48.110;-1.706;2023-04-06T04:51:41;9.70;99.90
11035;DHT22;5571;48.110;-1.706;2023-04-06T04:54:06;9.70;99.90
11035;DHT22;5571;48.110;-1.706;2023-04-06T04:56:32;9.70;99.90
11035;DHT22;5571;48.110;-1.706;2023-04-06T04:58:58;9.70;99.90
11035;DHT22;5571;48.110;-1.706;2023-04-06T05:01:23;9.70;99.90
11035;DHT22;5571;48.110;-1.706;2023-04-06T05:03:49;9.70;99.90
11035;DHT22;5571;48.110;-1.706;2023-04-06T05:06:15;9.70;99.90
11035;DHT22;5571;48.110;-1.706;2023-04-06T05:08:41;9.60;99.90
11035;DHT22;5571;48.110;-1.706;2023-04-06T05:11:08;9.60;99.90
11035;DHT22;5571;48.110;-1.706;2023-04-06T05:13:33;9.60;99.90
11035;DHT22;5571;48.110;-1.706;2023-04-06T05:15:59;9.50;99.90
11035;DHT22;5571;48.110;-1.706;2023-04-06T05:18:25;9.50;99.90
11035;DHT22;5571;48.110;-1.706;2023-04-06T05:20:51;9.50;99.90
11035;DHT22;5571;48.110;-1.706;2023-04-06T05:23:17;9.50;99.90
11035;DHT22;5571;48.110;-1.706;2023-04-06T05:25:43;9.50;99.90
11035;DHT22;5571;48.110;-1.706;2023-04-06T05:28:08;9.60;99.90
11035;DHT22;5571;48.110;-1.706;2023-04-06T05:30:34;9.60;99.90
11035;DHT22;5571;48.110;-1.706;2023-04-06T05:33:01;9.60;99.90
11035;DHT22;5571;48.110;-1.706;2023-04-06T05:35:27;9.60;99.90
11035;DHT22;5571;48.110;-1.706;2023-04-06T05:37:53;9.60;99.90
11035;DHT22;5571;48.110;-1.706;2023-04-06T05:40:18;9.60;99.90
11035;DHT22;5571;48.110;-1.706;2023-04-06T05:42:44;9.60;99.90
11035;DHT22;5571;48.110;-1.706;2023-04-06T05:45:10;9.70;99.90
11035;DHT22;5571;48.110;-1.706;2023-04-06T05:47:37;9.60;99.90
11035;DHT22;5571;48.110;-1.706;2023-04-06T05:50:02;9.60;99.90
11035;DHT22;5571;48.110;-1.706;2023-04-06T05:52:28;9.60;99.90
11035;DHT22;5571;48.110;-1.706;2023-04-06T05:54:54;9.70;99.90
11035;DHT22;5571;48.110;-1.706;2023-04-06T05:57:19;9.70;99.90
11035;DHT22;5571;48.110;-1.706;2023-04-06T05:59:45;9.70;99.90
11035;DHT22;5571;48.110;-1.706;2023-04-06T06:02:11;9.70;99.90
11035;DHT22;5571;48.110;-1.706;2023-04-06T06:04:36;9.70;99.90
11035;DHT22;5571;48.110;-1.706;2023-04-06T06:07:02;9.70;99.90
11035;DHT22;5571;48.110;-1.706;2023-04-06T06:09:28;9.70;99.90
11035;DHT22;5571;48.110;-1.706;2023-04-06T06:11:53;9.70;99.90
11035;DHT22;5571;48.110;-1.706;2023-04-06T06:14:19;9.70;99.90
11035;DHT22;5571;48.110;-1.706;2023-04-06T06:16:45;9.80;99.90
11035;DHT22;5571;48.110;-1.706;2023-04-06T06:19:11;9.80;99.90
11035;DHT22;5571;48.110;-1.706;2023-04-06T06:21:37;9.80;99.90
11035;DHT22;5571;48.110;-1.706;2023-04-06T06:24:02;9.80;99.90
11035;DHT22;5571;48.110;-1.706;2023-04-06T06:26:28;9.90;99.90
11035;DHT22;5571;48.110;-1.706;2023-04-06T06:28:53;9.90;99.90
11035;DHT22;5571;48.110;-1.706;2023-04-06T06:31:19;9.90;99.90
11035;DHT22;5571;48.110;-1.706;2023-04-06T06:33:51;9.90;99.90
11035;DHT22;5571;48.110;-1.706;2023-04-06T06:36:17;10.00;99.90
11035;DHT22;5571;48.110;-1.706;2023-04-06T06:38:43;10.00;99.90
11035;DHT22;5571;48.110;-1.706;2023-04-06T06:41:09;10.00;99.90
11035;DHT22;5571;48.110;-1.706;2023-04-06T06:43:35;10.10;99.90
11035;DHT22;5571;48.110;-1.706;2023-04-06T06:46:00;10.10;99.90
11035;DHT22;5571;48.110;-1.706;2023-04-06T06:48:26;10.10;99.90
11035;DHT22;5571;48.110;-1.706;2023-04-06T06:50:52;10.10;99.90
11035;DHT22;5571;48.110;-1.706;2023-04-06T06:53:17;10.10;99.90
11035;DHT22;5571;48.110;-1.706;2023-04-06T06:55:43;10.20;99.90
11035;DHT22;5571;48.110;-1.706;2023-04-06T06:58:11;10.20;99.90
11035;DHT22;5571;48.110;-1.706;2023-04-06T07:00:37;10.20;99.90
11035;DHT22;5571;48.110;-1.706;2023-04-06T07:03:03;10.20;99.90
11035;DHT22;5571;48.110;-1.706;2023-04-06T07:05:28;10.20;99.90
11035;DHT22;5571;48.110;-1.706;2023-04-06T07:07:55;10.20;99.90
11035;DHT22;5571;48.110;-1.706;2023-04-06T07:10:21;10.30;99.90
11035;DHT22;5571;48.110;-1.706;2023-04-06T07:12:47;10.30;99.90
11035;DHT22;5571;48.110;-1.706;2023-04-06T07:15:13;10.30;99.90
11035;DHT22;5571;48.110;-1.706;2023-04-06T07:17:38;10.30;99.90
11035;DHT22;5571;48.110;-1.706;2023-04-06T07:20:06;10.40;99.90
11035;DHT22;5571;48.110;-1.706;2023-04-06T07:22:32;10.40;99.90
11035;DHT22;5571;48.110;-1.706;2023-04-06T07:24:58;10.50;99.90
11035;DHT22;5571;48.110;-1.706;2023-04-06T07:27:23;10.50;99.90
11035;DHT22;5571;48.110;-1.706;2023-04-06T07:29:49;10.50;99.90
11035;DHT22;5571;48.110;-1.706;2023-04-06T07:32:15;10.60;99.90
11035;DHT22;5571;48.110;-1.706;2023-04-06T07:34:40;10.60;99.90
11035;DHT22;5571;48.110;-1.706;2023-04-06T07:37:06;10.50;99.90
11035;DHT22;5571;48.110;-1.706;2023-04-06T07:39:32;10.50;99.90
11035;DHT22;5571;48.110;-1.706;2023-04-06T07:41:57;10.50;99.90
11035;DHT22;5571;48.110;-1.706;2023-04-06T07:44:23;10.50;99.90
11035;DHT22;5571;48.110;-1.706;2023-04-06T07:46:48;10.50;99.90
11035;DHT22;5571;48.110;-1.706;2023-04-06T07:49:14;10.50;99.90
11035;DHT22;5571;48.110;-1.706;2023-04-06T07:51:40;10.50;99.90
11035;DHT22;5571;48.110;-1.706;2023-04-06T07:54:05;10.50;99.90
11035;DHT22;5571;48.110;-1.706;2023-04-06T07:56:31;10.60;99.90
11035;DHT22;5571;48.110;-1.706;2023-04-06T07:58:57;10.50;99.90
11035;DHT22;5571;48.110;-1.706;2023-04-06T08:01:23;10.60;99.90
11035;DHT22;5571;48.110;-1.706;2023-04-06T08:03:50;10.60;99.90
11035;DHT22;5571;48.110;-1.706;2023-04-06T08:06:16;10.70;99.90
11035;DHT22;5571;48.110;-1.706;2023-04-06T08:08:42;10.70;99.90
11035;DHT22;5571;48.110;-1.706;2023-04-06T08:11:08;10.70;99.90
11035;DHT22;5571;48.110;-1.706;2023-04-06T08:13:34;10.80;99.90
11035;DHT22;5571;48.110;-1.706;2023-04-06T08:16:01;10.80;99.90
11035;DHT22;5571;48.110;-1.706;2023-04-06T08:18:26;10.90;99.90
11035;DHT22;5571;48.110;-1.706;2023-04-06T08:20:52;10.90;99.90
11035;DHT22;5571;48.110;-1.706;2023-04-06T08:23:18;10.90;99.90
11035;DHT22;5571;48.110;-1.706;2023-04-06T08:25:43;11.00;99.90
11035;DHT22;5571;48.110;-1.706;2023-04-06T08:28:09;11.00;99.90
11035;DHT22;5571;48.110;-1.706;2023-04-06T08:30:35;11.00;99.90
11035;DHT22;5571;48.110;-1.706;2023-04-06T08:33:01;11.10;99.90
11035;DHT22;5571;48.110;-1.706;2023-04-06T08:35:27;11.30;99.90
11035;DHT22;5571;48.110;-1.706;2023-04-06T08:37:53;11.30;99.90
11035;DHT22;5571;48.110;-1.706;2023-04-06T08:40:18;11.40;99.90
11035;DHT22;5571;48.110;-1.706;2023-04-06T08:42:55;11.50;99.90
11035;DHT22;5571;48.110;-1.706;2023-04-06T08:45:21;11.50;99.90
11035;DHT22;5571;48.110;-1.706;2023-04-06T08:47:49;11.50;99.90
11035;DHT22;5571;48.110;-1.706;2023-04-06T08:50:16;11.50;99.90
11035;DHT22;5571;48.110;-1.706;2023-04-06T08:52:44;11.60;99.90
11035;DHT22;5571;48.110;-1.706;2023-04-06T08:55:11;11.70;99.90
11035;DHT22;5571;48.110;-1.706;2023-04-06T08:57:37;11.70;99.90
11035;DHT22;5571;48.110;-1.706;2023-04-06T09:00:04;11.80;99.90
11035;DHT22;5571;48.110;-1.706;2023-04-06T09:02:31;11.80;99.90
11035;DHT22;5571;48.110;-1.706;2023-04-06T09:04:57;11.90;99.90
11035;DHT22;5571;48.110;-1.706;2023-04-06T09:07:24;11.90;99.90
11035;DHT22;5571;48.110;-1.706;2023-04-06T09:09:50;11.90;99.90
11035;DHT22;5571;48.110;-1.706;2023-04-06T09:12:26;12.00;99.90
11035;DHT22;5571;48.110;-1.706;2023-04-06T09:14:53;12.00;99.90
11035;DHT22;5571;48.110;-1.706;2023-04-06T09:17:23;12.10;99.90
11035;DHT22;5571;48.110;-1.706;2023-04-06T09:19:50;12.10;99.90
11035;DHT22;5571;48.110;-1.706;2023-04-06T09:22:16;12.10;99.90
11035;DHT22;5571;48.110;-1.706;2023-04-06T09:25:08;12.10;99.90
11035;DHT22;5571;48.110;-1.706;2023-04-06T09:27:38;12.00;99.90
11035;DHT22;5571;48.110;-1.706;2023-04-06T09:32:43;12.00;99.90
11035;DHT22;5571;48.110;-1.706;2023-04-06T09:35:10;11.90;99.90
11035;DHT22;5571;48.110;-1.706;2023-04-06T09:37:36;11.90;99.90
11035;DHT22;5571;48.110;-1.706;2023-04-06T09:40:06;11.80;99.90
11035;DHT22;5571;48.110;-1.706;2023-04-06T09:42:33;11.70;99.90
11035;DHT22;5571;48.110;-1.706;2023-04-06T09:45:00;11.70;99.90
11035;DHT22;5571;48.110;-1.706;2023-04-06T09:47:26;11.60;99.90
11035;DHT22;5571;48.110;-1.706;2023-04-06T09:49:59;11.60;99.90
11035;DHT22;5571;48.110;-1.706;2023-04-06T09:52:40;11.60;99.90
11035;DHT22;5571;48.110;-1.706;2023-04-06T09:55:06;11.50;99.90
11035;DHT22;5571;48.110;-1.706;2023-04-06T09:58:00;11.50;99.90
11035;DHT22;5571;48.110;-1.706;2023-04-06T10:00:28;11.60;99.90
11035;DHT22;5571;48.110;-1.706;2023-04-06T10:05:55;11.70;99.90
11035;DHT22;5571;48.110;-1.706;2023-04-06T10:08:26;11.90;99.90
11035;DHT22;5571;48.110;-1.706;2023-04-06T10:10:54;11.90;99.90
11035;DHT22;5571;48.110;-1.706;2023-04-06T10:13:20;12.00;99.90
11035;DHT22;5571;48.110;-1.706;2023-04-06T10:15:47;12.00;99.90
11035;DHT22;5571;48.110;-1.706;2023-04-06T10:18:14;12.20;99.90
11035;DHT22;5571;48.110;-1.706;2023-04-06T10:20:49;12.40;99.90
11035;DHT22;5571;48.110;-1.706;2023-04-06T10:26:15;12.80;99.90
11035;DHT22;5571;48.110;-1.706;2023-04-06T10:28:46;13.00;99.90
11035;DHT22;5571;48.110;-1.706;2023-04-06T10:31:12;12.90;99.90
11035;DHT22;5571;48.110;-1.706;2023-04-06T10:33:38;12.80;99.90
11035;DHT22;5571;48.110;-1.706;2023-04-06T10:36:14;12.80;99.90
11035;DHT22;5571;48.110;-1.706;2023-04-06T10:38:41;12.80;99.90
11035;DHT22;5571;48.110;-1.706;2023-04-06T10:41:09;12.90;99.90
11035;DHT22;5571;48.110;-1.706;2023-04-06T10:43:36;13.00;99.90
11035;DHT22;5571;48.110;-1.706;2023-04-06T10:46:03;13.00;99.90
11035;DHT22;5571;48.110;-1.706;2023-04-06T10:48:39;13.10;99.90
11035;DHT22;5571;48.110;-1.706;2023-04-06T10:51:16;13.10;99.90
11035;DHT22;5571;48.110;-1.706;2023-04-06T10:53:43;13.10;99.90
11035;DHT22;5571;48.110;-1.706;2023-04-06T10:56:13;13.10;99.90
11035;DHT22;5571;48.110;-1.706;2023-04-06T10:58:51;13.10;99.90
11035;DHT22;5571;48.110;-1.706;2023-04-06T11:01:18;13.10;99.90
11035;DHT22;5571;48.110;-1.706;2023-04-06T11:03:49;13.10;99.90
11035;DHT22;5571;48.110;-1.706;2023-04-06T11:06:22;13.10;99.90
11035;DHT22;5571;48.110;-1.706;2023-04-06T11:08:49;13.10;99.90
11035;DHT22;5571;48.110;-1.706;2023-04-06T11:11:17;13.00;99.90
11035;DHT22;5571;48.110;-1.706;2023-04-06T11:16:16;13.00;99.90
11035;DHT22;5571;48.110;-1.706;2023-04-06T11:18:58;12.90;99.90
11035;DHT22;5571;48.110;-1.706;2023-04-06T11:21:36;13.10;99.90
11035;DHT22;5571;48.110;-1.706;2023-04-06T11:24:19;13.30;99.90
11035;DHT22;5571;48.110;-1.706;2023-04-06T11:26:49;13.50;99.90
11035;DHT22;5571;48.110;-1.706;2023-04-06T11:29:22;13.70;99.90
11035;DHT22;5571;48.110;-1.706;2023-04-06T11:31:50;13.80;99.90
11035;DHT22;5571;48.110;-1.706;2023-04-06T11:34:21;14.00;99.90
11035;DHT22;5571;48.110;-1.706;2023-04-06T11:36:57;14.30;99.90
11035;DHT22;5571;48.110;-1.706;2023-04-06T11:39:25;14.40;99.90
11035;DHT22;5571;48.110;-1.706;2023-04-06T11:41:59;14.50;99.90
11035;DHT22;5571;48.110;-1.706;2023-04-06T11:47:04;15.00;99.90
11035;DHT22;5571;48.110;-1.706;2023-04-06T11:49:31;15.00;99.90
11035;DHT22;5571;48.110;-1.706;2023-04-06T11:51:58;14.80;99.90
11035;DHT22;5571;48.110;-1.706;2023-04-06T11:54:37;14.60;99.90
11035;DHT22;5571;48.110;-1.706;2023-04-06T11:57:04;14.40;99.90
11035;DHT22;5571;48.110;-1.706;2023-04-06T11:59:33;14.30;99.90
11035;DHT22;5571;48.110;-1.706;2023-04-06T12:01:59;14.30;99.90
11035;DHT22;5571;48.110;-1.706;2023-04-06T12:04:24;14.20;99.90
11035;DHT22;5571;48.110;-1.706;2023-04-06T12:06:50;14.20;99.90
11035;DHT22;5571;48.110;-1.706;2023-04-06T12:09:16;14.20;99.90
11035;DHT22;5571;48.110;-1.706;2023-04-06T12:11:45;14.20;99.90
11035;DHT22;5571;48.110;-1.706;2023-04-06T12:14:11;14.20;99.90
11035;DHT22;5571;48.110;-1.706;2023-04-06T12:16:37;14.20;99.90
11035;DHT22;5571;48.110;-1.706;2023-04-06T12:19:03;14.20;99.90
11035;DHT22;5571;48.110;-1.706;2023-04-06T12:21:29;14.20;99.90
11035;DHT22;5571;48.110;-1.706;2023-04-06T12:23:59;14.20;99.90
11035;DHT22;5571;48.110;-1.706;2023-04-06T12:26:26;14.10;99.90
11035;DHT22;5571;48.110;-1.706;2023-04-06T12:29:00;14.00;99.90
11035;DHT22;5571;48.110;-1.706;2023-04-06T12:31:32;14.00;99.90
11035;DHT22;5571;48.110;-1.706;2023-04-06T12:33:58;14.00;99.90
11035;DHT22;5571;48.110;-1.706;2023-04-06T12:36:23;14.00;99.90
11035;DHT22;5571;48.110;-1.706;2023-04-06T12:38:50;13.90;99.90
11035;DHT22;5571;48.110;-1.706;2023-04-06T12:41:18;13.90;99.90
11035;DHT22;5571;48.110;-1.706;2023-04-06T12:43:44;13.80;99.90
11035;DHT22;5571;48.110;-1.706;2023-04-06T12:46:11;13.80;99.90
11035;DHT22;5571;48.110;-1.706;2023-04-06T12:48:37;13.80;99.90
11035;DHT22;5571;48.110;-1.706;2023-04-06T12:51:04;13.80;99.90
11035;DHT22;5571;48.110;-1.706;2023-04-06T12:53:31;13.80;99.90
11035;DHT22;5571;48.110;-1.706;2023-04-06T12:55:57;13.80;99.90
11035;DHT22;5571;48.110;-1.706;2023-04-06T12:58:24;13.80;99.90
11035;DHT22;5571;48.110;-1.706;2023-04-06T13:00:52;13.90;99.90
11035;DHT22;5571;48.110;-1.706;2023-04-06T13:03:20;13.80;99.90
11035;DHT22;5571;48.110;-1.706;2023-04-06T13:05:48;13.90;99.90
11035;DHT22;5571;48.110;-1.706;2023-04-06T13:08:15;14.00;99.90
11035;DHT22;5571;48.110;-1.706;2023-04-06T13:10:48;14.00;99.90
11035;DHT22;5571;48.110;-1.706;2023-04-06T13:13:14;14.00;99.90
11035;DHT22;5571;48.110;-1.706;2023-04-06T13:15:40;14.00;99.90
11035;DHT22;5571;48.110;-1.706;2023-04-06T13:18:07;14.00;99.90
11035;DHT22;5571;48.110;-1.706;2023-04-06T13:20:33;14.20;99.90
11035;DHT22;5571;48.110;-1.706;2023-04-06T13:22:59;14.40;99.90
11035;DHT22;5571;48.110;-1.706;2023-04-06T13:25:24;14.50;99.90
11035;DHT22;5571;48.110;-1.706;2023-04-06T13:27:50;14.60;99.90
11035;DHT22;5571;48.110;-1.706;2023-04-06T13:30:16;14.70;99.90
11035;DHT22;5571;48.110;-1.706;2023-04-06T13:32:41;14.70;99.90
11035;DHT22;5571;48.110;-1.706;2023-04-06T13:35:07;14.70;99.90
11035;DHT22;5571;48.110;-1.706;2023-04-06T13:37:34;14.60;99.90
11035;DHT22;5571;48.110;-1.706;2023-04-06T13:40:00;14.60;99.90
11035;DHT22;5571;48.110;-1.706;2023-04-06T13:42:27;14.50;99.90
11035;DHT22;5571;48.110;-1.706;2023-04-06T13:44:53;14.60;99.90
11035;DHT22;5571;48.110;-1.706;2023-04-06T13:47:19;14.60;99.90
11035;DHT22;5571;48.110;-1.706;2023-04-06T13:49:46;14.60;99.90
11035;DHT22;5571;48.110;-1.706;2023-04-06T13:52:12;14.60;99.90
11035;DHT22;5571;48.110;-1.706;2023-04-06T13:54:37;14.60;99.90
11035;DHT22;5571;48.110;-1.706;2023-04-06T13:57:03;14.60;99.90
11035;DHT22;5571;48.110;-1.706;2023-04-06T13:59:34;14.50;99.90
11035;DHT22;5571;48.110;-1.706;2023-04-06T14:02:04;14.50;99.90
11035;DHT22;5571;48.110;-1.706;2023-04-06T14:04:30;14.40;99.90
11035;DHT22;5571;48.110;-1.706;2023-04-06T14:06:59;14.30;99.90
11035;DHT22;5571;48.110;-1.706;2023-04-06T14:09:26;14.30;99.90
11035;DHT22;5571;48.110;-1.706;2023-04-06T14:11:51;14.20;99.90
11035;DHT22;5571;48.110;-1.706;2023-04-06T14:14:17;14.10;99.90
11035;DHT22;5571;48.110;-1.706;2023-04-06T14:16:43;14.00;99.90
11035;DHT22;5571;48.110;-1.706;2023-04-06T14:19:10;14.00;99.90
11035;DHT22;5571;48.110;-1.706;2023-04-06T14:21:38;13.90;99.90
11035;DHT22;5571;48.110;-1.706;2023-04-06T14:24:08;13.90;99.90
11035;DHT22;5571;48.110;-1.706;2023-04-06T14:26:36;13.80;99.90
11035;DHT22;5571;48.110;-1.706;2023-04-06T14:29:03;13.80;99.90
11035;DHT22;5571;48.110;-1.706;2023-04-06T14:31:29;13.80;99.90
11035;DHT22;5571;48.110;-1.706;2023-04-06T14:33:55;13.80;99.90
11035;DHT22;5571;48.110;-1.706;2023-04-06T14:36:21;13.80;99.90
11035;DHT22;5571;48.110;-1.706;2023-04-06T14:38:46;13.90;99.90
11035;DHT22;5571;48.110;-1.706;2023-04-06T14:41:21;13.90;99.90
11035;DHT22;5571;48.110;-1.706;2023-04-06T14:43:47;13.90;99.90
11035;DHT22;5571;48.110;-1.706;2023-04-06T14:46:13;13.90;99.90
11035;DHT22;5571;48.110;-1.706;2023-04-06T14:48:38;13.90;99.90
11035;DHT22;5571;48.110;-1.706;2023-04-06T14:51:04;13.90;99.90
11035;DHT22;5571;48.110;-1.706;2023-04-06T14:53:30;13.80;99.90
11035;DHT22;5571;48.110;-1.706;2023-04-06T14:55:56;13.80;99.90
11035;DHT22;5571;48.110;-1.706;2023-04-06T14:58:23;13.70;99.90
11035;DHT22;5571;48.110;-1.706;2023-04-06T15:00:49;13.70;99.90
11035;DHT22;5571;48.110;-1.706;2023-04-06T15:03:20;13.60;99.90
11035;DHT22;5571;48.110;-1.706;2023-04-06T15:05:45;13.60;99.90
11035;DHT22;5571;48.110;-1.706;2023-04-06T15:08:11;13.70;99.90
11035;DHT22;5571;48.110;-1.706;2023-04-06T15:10:38;13.70;99.90
11035;DHT22;5571;48.110;-1.706;2023-04-06T15:13:04;13.80;99.90
11035;DHT22;5571;48.110;-1.706;2023-04-06T15:15:30;14.00;99.90
11035;DHT22;5571;48.110;-1.706;2023-04-06T15:17:56;14.10;99.90
11035;DHT22;5571;48.110;-1.706;2023-04-06T15:20:21;14.10;99.90
11035;DHT22;5571;48.110;-1.706;2023-04-06T15:22:47;14.20;99.90
11035;DHT22;5571;48.110;-1.706;2023-04-06T15:25:12;14.20;99.90
11035;DHT22;5571;48.110;-1.706;2023-04-06T15:27:38;14.40;99.90
11035;DHT22;5571;48.110;-1.706;2023-04-06T15:30:04;14.70;99.90
11035;DHT22;5571;48.110;-1.706;2023-04-06T15:32:30;15.00;99.90
11035;DHT22;5571;48.110;-1.706;2023-04-06T15:34:57;15.40;99.90
11035;DHT22;5571;48.110;-1.706;2023-04-06T15:37:23;15.80;99.90
11035;DHT22;5571;48.110;-1.706;2023-04-06T15:39:48;16.10;99.90
11035;DHT22;5571;48.110;-1.706;2023-04-06T15:42:14;16.10;99.90
11035;DHT22;5571;48.110;-1.706;2023-04-06T15:44:40;16.20;99.90